Time,TemperatureF,DewpointF,PressureIn,WindDirection,WindDirectionDegrees,WindSpeedMPH,WindSpeedGustMPH,Humidity,HourlyPrecipIn,Conditions,Clouds,dailyrainin,SoftwareType,DateUTC
2013-07-07 00:11:00,74.0,48.0,-100.00,NW,320,5.0,6.0,40,-99.99,,,-99.99,,2013-07-07 07:11:00,
2013-07-07 00:22:00,74.0,47.0,-100.00,NW,319,5.0,7.0,39,-99.99,,,-99.99,,2013-07-07 07:22:00,
2013-07-07 01:12:00,74.0,41.0,-100.00,NW,313,4.0,7.0,31,-99.99,,,-99.99,,2013-07-07 08:12:00,
2013-07-07 01:21:00,74.0,40.0,-100.00,NW,307,5.0,7.0,29,-99.99,,,-99.99,,2013-07-07 08:21:00,
2013-07-07 01:53:00,74.0,40.0,-100.00,WNW,295,4.0,5.0,29,-99.99,,,-99.99,,2013-07-07 08:53:00,
2013-07-07 02:12:00,74.0,41.0,-100.00,WNW,295,3.0,5.0,31,-99.99,,,-99.99,,2013-07-07 09:12:00,
2013-07-07 02:22:00,74.0,35.0,-100.00,WNW,287,3.0,5.0,24,-99.99,,,-99.99,,2013-07-07 09:22:00,
2013-07-07 08:22:00,77.0,24.0,-100.00,NW,312,4.0,7.0,14,-99.99,,,-99.99,,2013-07-07 15:22:00,
2013-07-07 08:33:00,77.0,24.0,-100.00,NW,312,4.0,7.0,14,-99.99,,,-99.99,,2013-07-07 15:33:00,
2013-07-07 08:52:00,79.0,24.0,-100.00,West,264,4.0,5.0,13,-99.99,,,-99.99,,2013-07-07 15:52:00,
2013-07-07 09:11:00,79.0,26.0,-100.00,WSW,251,5.0,7.0,14,-99.99,,,-99.99,,2013-07-07 16:11:00,
2013-07-07 09:22:00,79.0,26.0,-100.00,WSW,251,5.0,7.0,14,-99.99,,,-99.99,,2013-07-07 16:22:00,
2013-07-07 09:43:00,80.0,27.0,-100.00,WSW,253,6.0,10.0,14,-99.99,,,-99.99,,2013-07-07 16:43:00,
2013-07-07 10:11:00,81.0,29.0,-100.00,WSW,253,6.0,9.0,15,-99.99,,,-99.99,,2013-07-07 17:11:00,
2013-07-07 10:22:00,81.0,31.0,-100.00,WSW,256,6.0,11.0,16,-99.99,,,-99.99,,2013-07-07 17:22:00,
2013-07-07 10:43:00,81.0,35.0,-100.00,WSW,252,6.0,11.0,19,-99.99,,,-99.99,,2013-07-07 17:43:00,
2013-07-07 11:11:00,81.0,42.0,-100.00,WSW,258,8.0,13.0,25,-99.99,,,-99.99,,2013-07-07 18:11:00,
2013-07-07 11:43:00,81.0,44.0,-100.00,WSW,252,8.0,12.0,27,-99.99,,,-99.99,,2013-07-07 18:43:00,
2013-07-07 11:53:00,82.0,46.0,-100.00,WSW,241,7.0,16.0,28,-99.99,,,-99.99,,2013-07-07 18:53:00,
2013-07-07 12:11:00,81.0,47.0,-100.00,WSW,249,9.0,14.0,30,-99.99,,,-99.99,,2013-07-07 19:11:00,
2013-07-07 12:22:00,81.0,47.0,-100.00,WSW,254,9.0,15.0,31,-99.99,,,-99.99,,2013-07-07 19:22:00,
2013-07-07 12:54:00,81.0,47.0,-100.00,West,267,8.0,14.0,30,-99.99,,,-99.99,,2013-07-07 19:54:00,
2013-07-07 13:11:00,81.0,46.0,-100.00,West,264,9.0,15.0,29,-99.99,,,-99.99,,2013-07-07 20:11:00,
2013-07-07 13:22:00,81.0,45.0,-100.00,West,266,9.0,15.0,28,-99.99,,,-99.99,,2013-07-07 20:22:00,
2013-07-07 13:33:00,81.0,44.0,-100.00,West,262,8.0,15.0,27,-99.99,,,-99.99,,2013-07-07 20:33:00,
2013-07-07 13:42:00,82.0,45.0,-100.00,WSW,256,9.0,16.0,27,-99.99,,,-99.99,,2013-07-07 20:42:00,
2013-07-07 13:53:00,82.0,46.0,-100.00,West,260,8.0,14.0,28,-99.99,,,-99.99,,2013-07-07 20:53:00,
2013-07-07 14:11:00,82.0,46.0,-100.00,WSW,257,9.0,17.0,28,-99.99,,,-99.99,,2013-07-07 21:11:00,
2013-07-07 14:22:00,82.0,46.0,-100.00,WSW,257,9.0,17.0,28,-99.99,,,-99.99,,2013-07-07 21:22:00,
2013-07-07 14:43:00,82.0,43.0,-100.00,WSW,251,11.0,18.0,25,-99.99,,,-99.99,,2013-07-07 21:43:00,
2013-07-07 14:53:00,83.0,44.0,-100.00,West,261,9.0,16.0,25,-99.99,,,-99.99,,2013-07-07 21:53:00,
2013-07-07 15:01:00,82.0,42.0,-100.00,WSW,251,9.0,15.0,24,-99.99,,,-99.99,,2013-07-07 22:01:00,
2013-07-07 15:11:00,83.0,42.0,-100.00,WSW,248,8.0,18.0,24,-99.99,,,-99.99,,2013-07-07 22:11:00,
2013-07-07 15:22:00,83.0,42.0,-100.00,WSW,248,8.0,18.0,24,-99.99,,,-99.99,,2013-07-07 22:22:00,
2013-07-07 15:33:00,82.0,43.0,-100.00,WSW,258,11.0,18.0,25,-99.99,,,-99.99,,2013-07-07 22:33:00,
2013-07-07 15:50:00,82.0,47.0,-100.00,WSW,257,9.0,16.0,29,-99.99,,,-99.99,,2013-07-07 22:50:00,
2013-07-07 15:53:00,82.0,45.0,-100.00,WSW,255,10.0,17.0,27,-99.99,,,-99.99,,2013-07-07 22:53:00,
2013-07-07 16:11:00,82.0,47.0,-100.00,WSW,257,9.0,16.0,29,-99.99,,,-99.99,,2013-07-07 23:11:00,
2013-07-07 16:22:00,82.0,47.0,-100.00,WSW,257,9.0,16.0,29,-99.99,,,-99.99,,2013-07-07 23:22:00,
2013-07-07 16:33:00,82.0,47.0,-100.00,WSW,257,9.0,16.0,29,-99.99,,,-99.99,,2013-07-07 23:33:00,
2013-07-07 16:43:00,82.0,47.0,-100.00,WSW,257,9.0,16.0,29,-99.99,,,-99.99,,2013-07-07 23:43:00,
2013-07-07 17:53:00,79.0,44.0,-100.00,West,263,10.0,17.0,29,-99.99,,,-99.99,,2013-07-08 00:53:00,
2013-07-07 18:11:00,79.0,42.0,-100.00,WSW,257,11.0,15.0,27,-99.99,,,-99.99,,2013-07-08 01:11:00,
2013-07-07 18:21:00,78.0,41.0,-100.00,West,264,9.0,18.0,27,-99.99,,,-99.99,,2013-07-08 01:21:00,
2013-07-07 18:32:00,78.0,41.0,-100.00,West,264,9.0,18.0,27,-99.99,,,-99.99,,2013-07-08 01:32:00,
2013-07-07 18:42:00,78.0,41.0,-100.00,West,264,9.0,18.0,27,-99.99,,,-99.99,,2013-07-08 01:42:00,
2013-07-07 19:11:00,77.0,40.0,-100.00,West,277,7.0,11.0,27,-99.99,,,-99.99,,2013-07-08 02:11:00,
2013-07-07 19:42:00,76.0,42.0,-100.00,WNW,285,6.0,8.0,30,-99.99,,,-99.99,,2013-07-08 02:42:00,
2013-07-07 19:52:00,76.0,42.0,-100.00,West,281,5.0,8.0,30,-99.99,,,-99.99,,2013-07-08 02:52:00,
2013-07-07 20:11:00,75.0,42.0,-100.00,WNW,298,6.0,9.0,31,-99.99,,,-99.99,,2013-07-08 03:11:00,
2013-07-07 20:22:00,74.0,42.0,-100.00,NW,305,7.0,8.0,32,-99.99,,,-99.99,,2013-07-08 03:22:00,
2013-07-07 20:42:00,74.0,43.0,-100.00,NW,306,8.0,12.0,33,-99.99,,,-99.99,,2013-07-08 03:42:00,
2013-07-07 20:52:00,74.0,45.0,-100.00,WNW,302,8.0,10.0,35,-99.99,,,-99.99,,2013-07-08 03:52:00,
2013-07-07 21:01:00,74.0,46.0,-100.00,WNW,302,8.0,10.0,37,-99.99,,,-99.99,,2013-07-08 04:01:00,
2013-07-07 21:11:00,74.0,47.0,-100.00,NW,305,8.0,12.0,38,-99.99,,,-99.99,,2013-07-08 04:11:00,
2013-07-07 21:22:00,74.0,47.0,-100.00,WNW,300,7.0,10.0,39,-99.99,,,-99.99,,2013-07-08 04:22:00,
2013-07-07 21:42:00,74.0,47.0,-100.00,NW,306,7.0,10.0,39,-99.99,,,-99.99,,2013-07-08 04:42:00,
2013-07-07 22:22:00,73.0,46.0,-100.00,WNW,303,8.0,10.0,38,-99.99,,,-99.99,,2013-07-08 05:22:00,
2013-07-07 22:43:00,73.0,45.0,-100.00,NW,305,8.0,9.0,37,-99.99,,,-99.99,,2013-07-08 05:43:00,
2013-07-07 22:53:00,74.0,45.0,-100.00,NW,305,7.0,9.0,36,-99.99,,,-99.99,,2013-07-08 05:53:00,
2013-07-07 23:11:00,74.0,45.0,-100.00,WNW,292,5.0,8.0,35,-99.99,,,-99.99,,2013-07-08 06:11:00,
2013-07-07 23:22:00,74.0,43.0,-100.00,NW,304,6.0,8.0,33,-99.99,,,-99.99,,2013-07-08 06:22:00,
2013-07-07 23:42:00,74.0,40.0,-100.00,NNW,327,6.0,10.0,29,-99.99,,,-99.99,,2013-07-08 06:42:00,
2013-07-07 23:52:00,74.0,39.0,-100.00,NNW,328,7.0,10.0,28,-99.99,,,-99.99,,2013-07-08 06:52:00,